الصفحة الرئيسية
METAR-TAF:

METAR-TAF

مطار :

مطار بروكسل الدولي

بروكسل, بلجيكا

دائرة عرض: 50-54N, خط طول: 004-32E, ارتفاع: 55 متر

مراقبة الطقس الحالي

تاريخ ووقت الإصدار 29 دقيقة قبل الساعة 09:50UTC
ريح 3 عقدة من الشمال/الشمال الشرقي, الاتجاه يتراوح بين الشمال/الشمال الغربي و الشمال الشرقي
درجة الحرارة 17°درجة مئوية
الرطوبة 82%
ضغط 1020 hPa
الرؤية 10 كم أو أكثر
غيوم قليلة على ارتفاع 1300 قدم

METAR: EBBR 170950Z 02003KT 340V050 9999 FEW013 17/14 Q1020 NOSIG

زمن: 12:19 (10:19 UTC)

توقعات

تاريخ ووقت الإصدار 5ساعات و 15 دقيقة قبل الساعة 05:04UTC
التوقعات صالحة من17 الساعة 06 UTC إلى 18 الساعة 12 UTC
ريح 2 عقدةمن اتجاهات متغيرة
الرؤية: 6000 متر
غيوم قليلة على ارتفاع 2000 قدم
نظرية الاحتمالات 40% :
مؤقت
من 17 الساعة 06 UTC إلى 17 الساعة 07 UTC
الرؤية: 2500 متر
غشاء
نظرية الاحتمالات 30% :
مؤقت
من 18 الساعة 03 UTC إلى 18 الساعة 08 UTC
الرؤية: 4000 متر
غيوم مفككة على ارتفاع 800 قدم
غشاء

TAF: EBBR 170504Z 1706/1812 VRB02KT 6000 FEW020 PROB40 TEMPO 1706/1707 2500 BR PROB30 TEMPO 1803/1808 4000 BR BKN008

أرصاد الطقس والتوقعات من أكثر من 4000 مطار (تقارير الطقس للمطار METAR والتنبؤ بالطقس بالمطارTAF).

المحطات المتاحة هي النقط الصفراء والحمراء على الخريطة.

حرك المؤشر فوق النقطة لمعرفة اسم المحطة.

ثم انقر لمعرفة أرصاد وتوقعات الطقس.

لتغيير الخارطة: اضغط على الأزرار الخضراء مع رمز الصليب الأسود للتكبير. على الزر الأخضر مع شرطة للتصغير، أو على الأسهم الخضراء للخرائط المجاورة.


METAR-TAF: